sensor_id;sensor_type;location;lat;lon;timestamp;P1;durP1;ratioP1;P2;durP2;ratioP2
3309;SDS011;1667;53.238;10.394;2023-07-16T00:01:34;1.10;;;1.10;;
3309;SDS011;1667;53.238;10.394;2023-07-16T00:06:33;1.10;;;1.00;;
3309;SDS011;1667;53.238;10.394;2023-07-16T00:11:31;1.33;;;1.20;;
3309;SDS011;1667;53.238;10.394;2023-07-16T00:16:31;4.20;;;2.10;;
3309;SDS011;1667;53.238;10.394;2023-07-16T00:21:30;1.17;;;1.07;;
3309;SDS011;1667;53.238;10.394;2023-07-16T00:26:29;1.20;;;1.10;;
3309;SDS011;1667;53.238;10.394;2023-07-16T00:31:27;1.03;;;1.03;;
3309;SDS011;1667;53.238;10.394;2023-07-16T00:36:27;1.27;;;1.00;;
3309;SDS011;1667;53.238;10.394;2023-07-16T00:41:26;0.97;;;0.80;;
3309;SDS011;1667;53.238;10.394;2023-07-16T00:46:26;0.90;;;0.90;;
3309;SDS011;1667;53.238;10.394;2023-07-16T00:51:24;1.87;;;1.00;;
3309;SDS011;1667;53.238;10.394;2023-07-16T00:56:26;1.57;;;1.20;;
3309;SDS011;1667;53.238;10.394;2023-07-16T01:01:26;1.57;;;1.00;;
3309;SDS011;1667;53.238;10.394;2023-07-16T01:06:25;1.70;;;0.87;;
3309;SDS011;1667;53.238;10.394;2023-07-16T01:11:34;1.57;;;1.30;;
3309;SDS011;1667;53.238;10.394;2023-07-16T01:16:34;1.77;;;1.00;;
3309;SDS011;1667;53.238;10.394;2023-07-16T01:21:34;1.57;;;1.10;;
3309;SDS011;1667;53.238;10.394;2023-07-16T01:27:04;1.80;;;0.87;;
3309;SDS011;1667;53.238;10.394;2023-07-16T01:32:21;1.20;;;1.00;;
3309;SDS011;1667;53.238;10.394;2023-07-16T01:37:21;2.37;;;1.10;;
3309;SDS011;1667;53.238;10.394;2023-07-16T01:42:20;1.33;;;1.00;;
3309;SDS011;1667;53.238;10.394;2023-07-16T01:47:20;1.53;;;0.97;;
3309;SDS011;1667;53.238;10.394;2023-07-16T01:52:28;1.20;;;0.90;;
3309;SDS011;1667;53.238;10.394;2023-07-16T01:57:26;2.13;;;1.20;;
3309;SDS011;1667;53.238;10.394;2023-07-16T02:02:26;1.53;;;1.10;;
3309;SDS011;1667;53.238;10.394;2023-07-16T02:07:25;1.40;;;1.00;;
3309;SDS011;1667;53.238;10.394;2023-07-16T02:12:25;1.20;;;1.10;;
3309;SDS011;1667;53.238;10.394;2023-07-16T02:17:23;2.17;;;1.20;;
3309;SDS011;1667;53.238;10.394;2023-07-16T02:22:23;1.40;;;1.30;;
3309;SDS011;1667;53.238;10.394;2023-07-16T02:27:22;1.13;;;0.90;;
3309;SDS011;1667;53.238;10.394;2023-07-16T02:32:20;1.20;;;1.03;;
3309;SDS011;1667;53.238;10.394;2023-07-16T02:37:19;3.37;;;1.20;;
3309;SDS011;1667;53.238;10.394;2023-07-16T02:42:20;1.30;;;1.20;;
3309;SDS011;1667;53.238;10.394;2023-07-16T02:47:20;1.30;;;1.07;;
3309;SDS011;1667;53.238;10.394;2023-07-16T02:52:19;3.33;;;1.47;;
3309;SDS011;1667;53.238;10.394;2023-07-16T02:57:20;1.67;;;1.10;;
3309;SDS011;1667;53.238;10.394;2023-07-16T03:02:20;3.10;;;1.27;;
3309;SDS011;1667;53.238;10.394;2023-07-16T03:07:19;2.50;;;1.20;;
3309;SDS011;1667;53.238;10.394;2023-07-16T03:12:19;1.40;;;1.30;;
3309;SDS011;1667;53.238;10.394;2023-07-16T03:17:19;1.37;;;1.20;;
3309;SDS011;1667;53.238;10.394;2023-07-16T03:22:19;1.33;;;1.10;;
3309;SDS011;1667;53.238;10.394;2023-07-16T03:27:17;1.53;;;1.10;;
3309;SDS011;1667;53.238;10.394;2023-07-16T03:32:26;1.30;;;1.20;;
3309;SDS011;1667;53.238;10.394;2023-07-16T03:37:42;1.40;;;1.30;;
3309;SDS011;1667;53.238;10.394;2023-07-16T03:42:40;1.10;;;1.00;;
3309;SDS011;1667;53.238;10.394;2023-07-16T03:47:40;1.40;;;1.30;;
3309;SDS011;1667;53.238;10.394;2023-07-16T03:52:39;1.33;;;1.07;;
3309;SDS011;1667;53.238;10.394;2023-07-16T03:57:38;1.50;;;1.20;;
3309;SDS011;1667;53.238;10.394;2023-07-16T04:02:37;3.23;;;1.30;;
3309;SDS011;1667;53.238;10.394;2023-07-16T04:07:40;1.50;;;1.40;;
3309;SDS011;1667;53.238;10.394;2023-07-16T04:12:39;2.93;;;2.03;;
3309;SDS011;1667;53.238;10.394;2023-07-16T04:17:37;1.73;;;1.13;;
3309;SDS011;1667;53.238;10.394;2023-07-16T04:22:36;2.13;;;1.30;;
3309;SDS011;1667;53.238;10.394;2023-07-16T04:27:36;3.23;;;1.20;;
3309;SDS011;1667;53.238;10.394;2023-07-16T04:32:37;1.37;;;1.27;;
3309;SDS011;1667;53.238;10.394;2023-07-16T04:37:35;1.70;;;1.60;;
3309;SDS011;1667;53.238;10.394;2023-07-16T04:42:35;2.33;;;1.53;;
3309;SDS011;1667;53.238;10.394;2023-07-16T04:47:34;2.20;;;1.40;;
3309;SDS011;1667;53.238;10.394;2023-07-16T04:52:32;1.63;;;1.47;;
3309;SDS011;1667;53.238;10.394;2023-07-16T04:57:32;2.53;;;1.30;;
3309;SDS011;1667;53.238;10.394;2023-07-16T05:02:32;1.57;;;1.47;;
3309;SDS011;1667;53.238;10.394;2023-07-16T05:13:19;5.43;;;1.57;;
3309;SDS011;1667;53.238;10.394;2023-07-16T05:18:19;1.47;;;1.20;;
3309;SDS011;1667;53.238;10.394;2023-07-16T05:23:18;1.60;;;1.43;;
3309;SDS011;1667;53.238;10.394;2023-07-16T05:28:17;4.23;;;1.60;;
3309;SDS011;1667;53.238;10.394;2023-07-16T05:33:16;1.30;;;1.20;;
3309;SDS011;1667;53.238;10.394;2023-07-16T05:38:16;1.73;;;1.40;;
3309;SDS011;1667;53.238;10.394;2023-07-16T05:43:15;2.03;;;1.10;;
3309;SDS011;1667;53.238;10.394;2023-07-16T05:48:13;2.47;;;1.50;;
3309;SDS011;1667;53.238;10.394;2023-07-16T05:53:13;4.47;;;1.70;;
3309;SDS011;1667;53.238;10.394;2023-07-16T05:58:12;1.50;;;1.17;;
3309;SDS011;1667;53.238;10.394;2023-07-16T06:03:11;1.80;;;1.37;;
3309;SDS011;1667;53.238;10.394;2023-07-16T06:08:09;1.30;;;1.20;;
3309;SDS011;1667;53.238;10.394;2023-07-16T06:13:09;2.20;;;1.60;;
3309;SDS011;1667;53.238;10.394;2023-07-16T06:18:08;2.83;;;1.63;;
3309;SDS011;1667;53.238;10.394;2023-07-16T06:28:58;1.80;;;1.70;;
3309;SDS011;1667;53.238;10.394;2023-07-16T06:33:57;1.70;;;1.50;;
3309;SDS011;1667;53.238;10.394;2023-07-16T06:38:55;2.03;;;1.50;;
3309;SDS011;1667;53.238;10.394;2023-07-16T06:43:54;2.80;;;1.40;;
3309;SDS011;1667;53.238;10.394;2023-07-16T06:48:53;1.50;;;1.23;;
3309;SDS011;1667;53.238;10.394;2023-07-16T06:53:52;4.47;;;1.70;;
3309;SDS011;1667;53.238;10.394;2023-07-16T06:58:50;2.70;;;1.93;;
3309;SDS011;1667;53.238;10.394;2023-07-16T07:03:49;2.57;;;1.90;;
3309;SDS011;1667;53.238;10.394;2023-07-16T07:08:49;3.20;;;1.50;;
3309;SDS011;1667;53.238;10.394;2023-07-16T07:13:47;1.90;;;1.50;;
3309;SDS011;1667;53.238;10.394;2023-07-16T07:18:47;1.97;;;1.63;;
3309;SDS011;1667;53.238;10.394;2023-07-16T07:23:45;2.20;;;2.00;;
3309;SDS011;1667;53.238;10.394;2023-07-16T07:28:45;2.20;;;1.60;;
3309;SDS011;1667;53.238;10.394;2023-07-16T07:33:44;3.50;;;1.57;;
3309;SDS011;1667;53.238;10.394;2023-07-16T07:38:42;2.50;;;1.63;;
3309;SDS011;1667;53.238;10.394;2023-07-16T07:43:41;2.00;;;1.20;;
3309;SDS011;1667;53.238;10.394;2023-07-16T07:48:42;2.60;;;1.63;;
3309;SDS011;1667;53.238;10.394;2023-07-16T07:53:40;2.93;;;1.60;;
3309;SDS011;1667;53.238;10.394;2023-07-16T07:58:39;3.67;;;1.50;;
3309;SDS011;1667;53.238;10.394;2023-07-16T08:03:38;1.73;;;1.40;;
3309;SDS011;1667;53.238;10.394;2023-07-16T08:08:38;3.43;;;1.70;;
3309;SDS011;1667;53.238;10.394;2023-07-16T08:13:38;4.63;;;1.50;;
3309;SDS011;1667;53.238;10.394;2023-07-16T08:18:36;6.10;;;1.57;;
3309;SDS011;1667;53.238;10.394;2023-07-16T08:23:36;3.20;;;1.80;;
3309;SDS011;1667;53.238;10.394;2023-07-16T08:28:35;9.17;;;2.13;;
3309;SDS011;1667;53.238;10.394;2023-07-16T08:33:34;7.97;;;2.10;;
3309;SDS011;1667;53.238;10.394;2023-07-16T08:45:23;3.53;;;2.03;;
3309;SDS011;1667;53.238;10.394;2023-07-16T08:50:25;3.23;;;2.07;;
3309;SDS011;1667;53.238;10.394;2023-07-16T09:00:54;4.07;;;2.47;;
3309;SDS011;1667;53.238;10.394;2023-07-16T09:05:54;4.37;;;1.93;;
3309;SDS011;1667;53.238;10.394;2023-07-16T09:10:53;2.87;;;2.10;;
3309;SDS011;1667;53.238;10.394;2023-07-16T09:16:02;2.30;;;2.10;;
3309;SDS011;1667;53.238;10.394;2023-07-16T09:21:01;4.33;;;2.17;;
3309;SDS011;1667;53.238;10.394;2023-07-16T09:26:02;1.97;;;1.57;;
3309;SDS011;1667;53.238;10.394;2023-07-16T09:31:06;3.83;;;2.17;;
3309;SDS011;1667;53.238;10.394;2023-07-16T09:36:05;5.27;;;2.13;;
3309;SDS011;1667;53.238;10.394;2023-07-16T09:41:04;6.73;;;2.80;;
3309;SDS011;1667;53.238;10.394;2023-07-16T09:46:04;3.93;;;2.10;;
3309;SDS011;1667;53.238;10.394;2023-07-16T09:51:03;3.23;;;2.70;;
3309;SDS011;1667;53.238;10.394;2023-07-16T09:56:05;4.03;;;2.60;;
3309;SDS011;1667;53.238;10.394;2023-07-16T10:01:06;3.30;;;2.10;;
3309;SDS011;1667;53.238;10.394;2023-07-16T10:06:06;5.17;;;2.10;;
3309;SDS011;1667;53.238;10.394;2023-07-16T10:11:15;4.40;;;2.90;;
3309;SDS011;1667;53.238;10.394;2023-07-16T10:16:20;6.07;;;2.70;;
3309;SDS011;1667;53.238;10.394;2023-07-16T10:21:22;2.50;;;2.30;;
3309;SDS011;1667;53.238;10.394;2023-07-16T10:26:25;4.57;;;2.17;;
3309;SDS011;1667;53.238;10.394;2023-07-16T10:31:26;4.70;;;2.90;;
3309;SDS011;1667;53.238;10.394;2023-07-16T10:36:25;3.33;;;2.60;;
3309;SDS011;1667;53.238;10.394;2023-07-16T10:41:24;3.70;;;2.20;;
3309;SDS011;1667;53.238;10.394;2023-07-16T10:46:23;3.23;;;2.70;;
3309;SDS011;1667;53.238;10.394;2023-07-16T10:51:26;3.03;;;2.53;;
3309;SDS011;1667;53.238;10.394;2023-07-16T10:56:24;5.60;;;2.20;;
3309;SDS011;1667;53.238;10.394;2023-07-16T11:01:23;4.57;;;2.50;;
3309;SDS011;1667;53.238;10.394;2023-07-16T11:06:22;2.80;;;2.27;;
3309;SDS011;1667;53.238;10.394;2023-07-16T11:11:31;3.67;;;2.37;;
3309;SDS011;1667;53.238;10.394;2023-07-16T11:16:32;7.10;;;2.27;;
3309;SDS011;1667;53.238;10.394;2023-07-16T11:21:33;4.70;;;2.40;;
3309;SDS011;1667;53.238;10.394;2023-07-16T11:26:33;3.03;;;2.20;;
3309;SDS011;1667;53.238;10.394;2023-07-16T11:31:38;3.87;;;2.73;;
3309;SDS011;1667;53.238;10.394;2023-07-16T11:36:37;2.60;;;2.10;;
3309;SDS011;1667;53.238;10.394;2023-07-16T11:41:37;4.23;;;2.10;;
3309;SDS011;1667;53.238;10.394;2023-07-16T11:46:35;4.63;;;2.00;;
3309;SDS011;1667;53.238;10.394;2023-07-16T11:51:34;4.10;;;2.20;;
3309;SDS011;1667;53.238;10.394;2023-07-16T11:56:32;2.87;;;1.70;;
3309;SDS011;1667;53.238;10.394;2023-07-16T12:01:32;3.07;;;1.97;;
3309;SDS011;1667;53.238;10.394;2023-07-16T12:06:31;3.50;;;2.13;;
3309;SDS011;1667;53.238;10.394;2023-07-16T12:11:29;3.50;;;2.37;;
3309;SDS011;1667;53.238;10.394;2023-07-16T12:16:28;3.40;;;2.43;;
3309;SDS011;1667;53.238;10.394;2023-07-16T12:21:28;5.50;;;1.90;;
3309;SDS011;1667;53.238;10.394;2023-07-16T12:26:26;2.30;;;2.10;;
3309;SDS011;1667;53.238;10.394;2023-07-16T12:31:25;2.70;;;2.10;;
3309;SDS011;1667;53.238;10.394;2023-07-16T12:36:24;8.17;;;2.70;;
3309;SDS011;1667;53.238;10.394;2023-07-16T12:41:24;2.20;;;2.00;;
3309;SDS011;1667;53.238;10.394;2023-07-16T12:46:23;4.57;;;2.33;;
3309;SDS011;1667;53.238;10.394;2023-07-16T12:51:21;3.40;;;2.30;;
3309;SDS011;1667;53.238;10.394;2023-07-16T12:56:20;2.27;;;1.87;;
3309;SDS011;1667;53.238;10.394;2023-07-16T13:01:20;3.17;;;1.77;;
3309;SDS011;1667;53.238;10.394;2023-07-16T13:06:19;3.57;;;2.23;;
3309;SDS011;1667;53.238;10.394;2023-07-16T13:17:25;3.70;;;2.70;;
3309;SDS011;1667;53.238;10.394;2023-07-16T13:22:24;2.77;;;1.67;;
3309;SDS011;1667;53.238;10.394;2023-07-16T13:27:23;2.80;;;2.10;;
3309;SDS011;1667;53.238;10.394;2023-07-16T13:32:22;9.23;;;2.87;;
3309;SDS011;1667;53.238;10.394;2023-07-16T13:37:22;4.03;;;1.80;;
3309;SDS011;1667;53.238;10.394;2023-07-16T13:42:20;2.43;;;2.03;;
3309;SDS011;1667;53.238;10.394;2023-07-16T13:47:19;2.47;;;1.93;;
3309;SDS011;1667;53.238;10.394;2023-07-16T13:52:18;2.17;;;1.80;;
3309;SDS011;1667;53.238;10.394;2023-07-16T13:57:18;2.30;;;2.10;;
3309;SDS011;1667;53.238;10.394;2023-07-16T14:02:17;2.23;;;2.03;;
3309;SDS011;1667;53.238;10.394;2023-07-16T14:07:16;2.40;;;2.00;;
3309;SDS011;1667;53.238;10.394;2023-07-16T14:12:14;2.13;;;1.90;;
3309;SDS011;1667;53.238;10.394;2023-07-16T14:17:14;3.33;;;1.53;;
3309;SDS011;1667;53.238;10.394;2023-07-16T14:22:13;2.00;;;1.80;;
3309;SDS011;1667;53.238;10.394;2023-07-16T14:27:12;2.53;;;2.20;;
3309;SDS011;1667;53.238;10.394;2023-07-16T14:32:11;3.53;;;2.27;;
3309;SDS011;1667;53.238;10.394;2023-07-16T14:37:11;2.33;;;2.10;;
3309;SDS011;1667;53.238;10.394;2023-07-16T14:42:10;2.10;;;1.77;;
3309;SDS011;1667;53.238;10.394;2023-07-16T14:47:08;3.77;;;2.13;;
3309;SDS011;1667;53.238;10.394;2023-07-16T14:52:08;4.03;;;2.17;;
3309;SDS011;1667;53.238;10.394;2023-07-16T14:57:08;5.13;;;2.20;;
3309;SDS011;1667;53.238;10.394;2023-07-16T15:02:06;2.13;;;1.93;;
3309;SDS011;1667;53.238;10.394;2023-07-16T15:07:05;3.43;;;2.67;;
3309;SDS011;1667;53.238;10.394;2023-07-16T15:12:04;4.00;;;2.40;;
3309;SDS011;1667;53.238;10.394;2023-07-16T15:17:05;2.87;;;1.90;;
3309;SDS011;1667;53.238;10.394;2023-07-16T15:22:04;1.70;;;1.60;;
3309;SDS011;1667;53.238;10.394;2023-07-16T15:27:05;2.10;;;2.00;;
3309;SDS011;1667;53.238;10.394;2023-07-16T15:32:06;2.43;;;1.83;;
3309;SDS011;1667;53.238;10.394;2023-07-16T15:37:05;3.53;;;2.23;;
3309;SDS011;1667;53.238;10.394;2023-07-16T15:42:05;6.67;;;2.20;;
3309;SDS011;1667;53.238;10.394;2023-07-16T15:47:05;2.90;;;1.80;;
3309;SDS011;1667;53.238;10.394;2023-07-16T15:52:04;5.40;;;2.10;;
3309;SDS011;1667;53.238;10.394;2023-07-16T15:57:03;2.50;;;2.10;;
3309;SDS011;1667;53.238;10.394;2023-07-16T16:02:02;3.23;;;2.50;;
3309;SDS011;1667;53.238;10.394;2023-07-16T16:07:03;2.90;;;2.10;;
3309;SDS011;1667;53.238;10.394;2023-07-16T16:12:02;2.97;;;2.67;;
3309;SDS011;1667;53.238;10.394;2023-07-16T16:17:01;3.53;;;2.03;;
3309;SDS011;1667;53.238;10.394;2023-07-16T16:22:05;4.63;;;2.30;;
3309;SDS011;1667;53.238;10.394;2023-07-16T16:27:04;4.10;;;2.00;;
3309;SDS011;1667;53.238;10.394;2023-07-16T16:37:51;2.73;;;2.20;;
3309;SDS011;1667;53.238;10.394;2023-07-16T16:42:49;3.63;;;2.27;;
3309;SDS011;1667;53.238;10.394;2023-07-16T16:47:48;3.60;;;2.07;;
3309;SDS011;1667;53.238;10.394;2023-07-16T16:52:47;5.57;;;2.03;;
3309;SDS011;1667;53.238;10.394;2023-07-16T16:57:48;3.67;;;2.23;;
3309;SDS011;1667;53.238;10.394;2023-07-16T17:02:47;2.20;;;2.00;;
3309;SDS011;1667;53.238;10.394;2023-07-16T17:07:50;2.57;;;2.00;;
3309;SDS011;1667;53.238;10.394;2023-07-16T17:12:50;3.03;;;2.70;;
3309;SDS011;1667;53.238;10.394;2023-07-16T17:17:49;2.00;;;1.87;;
3309;SDS011;1667;53.238;10.394;2023-07-16T17:22:49;3.40;;;2.27;;
3309;SDS011;1667;53.238;10.394;2023-07-16T17:27:47;1.60;;;1.50;;
3309;SDS011;1667;53.238;10.394;2023-07-16T17:32:48;3.23;;;1.80;;
3309;SDS011;1667;53.238;10.394;2023-07-16T17:37:46;2.30;;;2.10;;
3309;SDS011;1667;53.238;10.394;2023-07-16T17:42:45;3.10;;;1.90;;
3309;SDS011;1667;53.238;10.394;2023-07-16T17:47:44;2.57;;;1.73;;
3309;SDS011;1667;53.238;10.394;2023-07-16T17:52:56;7.50;;;2.33;;
3309;SDS011;1667;53.238;10.394;2023-07-16T17:57:59;3.90;;;2.17;;
3309;SDS011;1667;53.238;10.394;2023-07-16T18:02:58;2.50;;;2.30;;
3309;SDS011;1667;53.238;10.394;2023-07-16T18:08:02;3.93;;;2.27;;
3309;SDS011;1667;53.238;10.394;2023-07-16T18:13:00;2.37;;;2.17;;
3309;SDS011;1667;53.238;10.394;2023-07-16T18:18:00;2.70;;;2.07;;
3309;SDS011;1667;53.238;10.394;2023-07-16T18:22:58;3.70;;;2.23;;
3309;SDS011;1667;53.238;10.394;2023-07-16T18:27:58;1.90;;;1.80;;
3309;SDS011;1667;53.238;10.394;2023-07-16T18:32:57;2.57;;;2.10;;
3309;SDS011;1667;53.238;10.394;2023-07-16T18:37:55;3.50;;;2.60;;
3309;SDS011;1667;53.238;10.394;2023-07-16T18:42:59;2.43;;;1.87;;
3309;SDS011;1667;53.238;10.394;2023-07-16T18:47:57;1.93;;;1.83;;
3309;SDS011;1667;53.238;10.394;2023-07-16T18:52:56;2.53;;;2.33;;
3309;SDS011;1667;53.238;10.394;2023-07-16T18:57:55;3.77;;;2.20;;
3309;SDS011;1667;53.238;10.394;2023-07-16T19:02:55;3.47;;;2.27;;
3309;SDS011;1667;53.238;10.394;2023-07-16T19:07:53;2.73;;;2.37;;
3309;SDS011;1667;53.238;10.394;2023-07-16T19:12:52;5.33;;;2.93;;
3309;SDS011;1667;53.238;10.394;2023-07-16T19:23:51;5.13;;;2.80;;
3309;SDS011;1667;53.238;10.394;2023-07-16T19:28:50;3.47;;;2.97;;
3309;SDS011;1667;53.238;10.394;2023-07-16T19:33:50;4.93;;;2.50;;
3309;SDS011;1667;53.238;10.394;2023-07-16T19:38:51;3.07;;;2.67;;
3309;SDS011;1667;53.238;10.394;2023-07-16T19:43:49;3.50;;;2.30;;
3309;SDS011;1667;53.238;10.394;2023-07-16T19:48:48;3.17;;;2.40;;
3309;SDS011;1667;53.238;10.394;2023-07-16T19:53:46;4.90;;;2.70;;
3309;SDS011;1667;53.238;10.394;2023-07-16T19:58:46;2.83;;;2.50;;
3309;SDS011;1667;53.238;10.394;2023-07-16T20:03:45;3.37;;;2.47;;
3309;SDS011;1667;53.238;10.394;2023-07-16T20:08:43;6.77;;;2.53;;
3309;SDS011;1667;53.238;10.394;2023-07-16T20:13:42;4.33;;;2.60;;
3309;SDS011;1667;53.238;10.394;2023-07-16T20:18:42;2.90;;;2.57;;
3309;SDS011;1667;53.238;10.394;2023-07-16T20:23:40;4.50;;;2.33;;
3309;SDS011;1667;53.238;10.394;2023-07-16T20:28:39;3.10;;;2.83;;
3309;SDS011;1667;53.238;10.394;2023-07-16T20:33:38;2.80;;;2.57;;
3309;SDS011;1667;53.238;10.394;2023-07-16T20:38:37;2.53;;;2.33;;
3309;SDS011;1667;53.238;10.394;2023-07-16T20:43:36;4.53;;;2.90;;
3309;SDS011;1667;53.238;10.394;2023-07-16T20:48:35;2.77;;;2.30;;
3309;SDS011;1667;53.238;10.394;2023-07-16T20:53:39;5.30;;;2.37;;
3309;SDS011;1667;53.238;10.394;2023-07-16T20:58:40;6.17;;;2.50;;
3309;SDS011;1667;53.238;10.394;2023-07-16T21:03:38;6.30;;;3.50;;
3309;SDS011;1667;53.238;10.394;2023-07-16T21:08:37;4.00;;;2.80;;
3309;SDS011;1667;53.238;10.394;2023-07-16T21:13:37;4.30;;;2.77;;
3309;SDS011;1667;53.238;10.394;2023-07-16T21:18:36;2.70;;;2.50;;
3309;SDS011;1667;53.238;10.394;2023-07-16T21:23:37;3.63;;;2.33;;
3309;SDS011;1667;53.238;10.394;2023-07-16T21:28:37;4.57;;;2.60;;
3309;SDS011;1667;53.238;10.394;2023-07-16T21:39:03;4.30;;;2.90;;
3309;SDS011;1667;53.238;10.394;2023-07-16T21:44:03;5.13;;;3.00;;
3309;SDS011;1667;53.238;10.394;2023-07-16T21:49:02;5.20;;;2.97;;
3309;SDS011;1667;53.238;10.394;2023-07-16T21:54:00;5.63;;;3.10;;
3309;SDS011;1667;53.238;10.394;2023-07-16T21:58:59;3.33;;;2.87;;
3309;SDS011;1667;53.238;10.394;2023-07-16T22:03:59;4.90;;;2.97;;
3309;SDS011;1667;53.238;10.394;2023-07-16T22:08:57;2.87;;;2.67;;
3309;SDS011;1667;53.238;10.394;2023-07-16T22:13:56;4.43;;;3.50;;
3309;SDS011;1667;53.238;10.394;2023-07-16T22:18:55;3.33;;;3.03;;
3309;SDS011;1667;53.238;10.394;2023-07-16T22:23:55;4.50;;;3.40;;
3309;SDS011;1667;53.238;10.394;2023-07-16T22:28:53;3.30;;;2.33;;
3309;SDS011;1667;53.238;10.394;2023-07-16T22:33:52;5.00;;;3.10;;
3309;SDS011;1667;53.238;10.394;2023-07-16T22:38:51;4.20;;;3.17;;
3309;SDS011;1667;53.238;10.394;2023-07-16T22:43:51;6.47;;;4.20;;
3309;SDS011;1667;53.238;10.394;2023-07-16T22:48:49;3.17;;;2.87;;
3309;SDS011;1667;53.238;10.394;2023-07-16T22:53:49;3.07;;;2.70;;
3309;SDS011;1667;53.238;10.394;2023-07-16T22:58:48;4.77;;;3.20;;
3309;SDS011;1667;53.238;10.394;2023-07-16T23:03:48;3.20;;;2.90;;
3309;SDS011;1667;53.238;10.394;2023-07-16T23:08:47;3.67;;;3.10;;
3309;SDS011;1667;53.238;10.394;2023-07-16T23:13:45;2.77;;;2.43;;
3309;SDS011;1667;53.238;10.394;2023-07-16T23:18:43;3.17;;;2.87;;
3309;SDS011;1667;53.238;10.394;2023-07-16T23:23:43;3.03;;;2.67;;
3309;SDS011;1667;53.238;10.394;2023-07-16T23:28:42;3.67;;;2.83;;
3309;SDS011;1667;53.238;10.394;2023-07-16T23:33:42;4.53;;;3.13;;
3309;SDS011;1667;53.238;10.394;2023-07-16T23:38:41;3.57;;;2.87;;
3309;SDS011;1667;53.238;10.394;2023-07-16T23:43:41;4.90;;;3.60;;
3309;SDS011;1667;53.238;10.394;2023-07-16T23:48:40;4.53;;;2.80;;
